»·PEaware :: N948BT 5CA4-KONT

N948BT :: 5CA4-KONT

FLIGHT INFORMATION

Flight Status: Arrived
Operator: Privately registered:
United States
More flights under this callsign
Pilot: Tony Dunbar (5369)
Aircraft: CESSNA 172 SKYHAWK
(C172)
More flights by this aircraft type
Origin: 5CA4 Ludlow
United States
Destination: KONT Ontario Intl
United States
More flights between these airports :: More routes between these airports
Route: HEC V442 PDZ
File this flight plan on PilotEdge
Remarks:
Altitude:
(Current/Filed)
6,500ft
Speed:
(Current/Filed)
115kts
Departed: 02-Jan-17 10:23 AM
Arrived: 02-Jan-17 11:24 AM
Distance/Time
Traveled:
83nm/1:01
Distance/Time
To Go:
Arrived

Flight Plot

Page will automatically refresh every two minutes.

Filed plans courtesy of Ian Elchitz and SimRoutes.com


Map Options




Map Legend


Flown Route
Filed Route
Departure Airport
Arrival Airport
Navaid (VOR, NDB)
Fix

Horizontal Profiles

Position Reports

Time Latitude Longitude Heading Altitude Ground
Speed
02-Jan-17 09:46 34.752641 -116.149949 88 1703ft 0kts
02-Jan-17 09:47 34.752641 -116.149949 88 1703ft 0kts
02-Jan-17 09:48 34.752641 -116.149949 88 1703ft 0kts
02-Jan-17 09:49 34.752641 -116.149949 88 1703ft 0kts
02-Jan-17 09:50 34.752641 -116.149949 88 1703ft 0kts
02-Jan-17 09:51 34.752641 -116.149949 88 1703ft 0kts
02-Jan-17 09:52 34.752641 -116.149949 88 1703ft 0kts
02-Jan-17 09:53 34.752641 -116.149949 88 1703ft 0kts
02-Jan-17 09:54 34.752641 -116.149949 88 1703ft 0kts
02-Jan-17 09:55 34.752641 -116.149949 88 1703ft 0kts
02-Jan-17 09:56 34.752641 -116.149949 88 1703ft 0kts
02-Jan-17 09:57 34.752641 -116.149949 88 1703ft 0kts
02-Jan-17 09:58 34.752641 -116.149949 88 1703ft 0kts
02-Jan-17 09:59 34.752641 -116.149949 88 1703ft 0kts
02-Jan-17 10:00 34.752641 -116.149949 88 1703ft 0kts
02-Jan-17 10:01 34.752641 -116.149949 88 1703ft 0kts
02-Jan-17 10:02 34.752641 -116.149949 88 1703ft 0kts
02-Jan-17 10:03 34.752641 -116.149949 88 1703ft 0kts
02-Jan-17 10:04 34.752641 -116.149949 88 1703ft 0kts
02-Jan-17 10:05 34.752641 -116.149949 88 1703ft 0kts
02-Jan-17 10:06 34.752641 -116.149949 88 1703ft 0kts
02-Jan-17 10:07 34.752641 -116.149949 88 1703ft 0kts
02-Jan-17 10:08 34.752641 -116.149949 88 1703ft 0kts
02-Jan-17 10:09 34.752641 -116.149949 88 1703ft 0kts
02-Jan-17 10:10 34.752641 -116.149949 88 1703ft 0kts
02-Jan-17 10:11 34.752641 -116.149949 88 1703ft 0kts
02-Jan-17 10:12 34.752641 -116.149949 88 1703ft 0kts
02-Jan-17 10:13 34.752641 -116.149949 88 1703ft 0kts
02-Jan-17 10:14 34.752641 -116.149949 88 1703ft 0kts
02-Jan-17 10:15 34.752641 -116.149949 88 1703ft 0kts
02-Jan-17 10:16 34.752641 -116.149949 88 1703ft 0kts
02-Jan-17 10:17 34.752641 -116.149949 88 1703ft 0kts
02-Jan-17 10:18 34.752641 -116.149949 88 1703ft 0kts
02-Jan-17 10:19 34.752641 -116.149949 88 1703ft 0kts
02-Jan-17 10:20 34.752641 -116.149949 88 1703ft 0kts
02-Jan-17 10:21 34.752642 -116.149942 85 1703ft 0kts
02-Jan-17 10:22 34.753054 -116.150001 303 1703ft 3kts
02-Jan-17 10:23 34.753085 -116.165491 253 1799ft 71kts
02-Jan-17 10:24 34.746436 -116.188534 242 2133ft 74kts
02-Jan-17 10:25 34.737525 -116.212298 242 2458ft 80kts
02-Jan-17 10:26 34.740536 -116.239290 286 2770ft 86kts
02-Jan-17 10:27 34.748079 -116.267544 286 3086ft 89kts
02-Jan-17 10:28 34.755568 -116.296709 289 3394ft 90kts
02-Jan-17 10:29 34.762653 -116.324737 289 3772ft 82kts
02-Jan-17 10:30 34.769117 -116.350744 289 4106ft 80kts
02-Jan-17 10:31 34.775591 -116.376851 289 4409ft 81kts
02-Jan-17 10:32 34.782077 -116.403072 289 4709ft 80kts
02-Jan-17 10:33 34.788524 -116.429293 289 4980ft 83kts
02-Jan-17 10:34 34.794200 -116.452324 289 5155ft 88kts
02-Jan-17 10:35 34.787036 -116.480506 243 5414ft 90kts
02-Jan-17 10:36 34.774781 -116.504862 243 5762ft 79kts
02-Jan-17 10:37 34.764163 -116.527648 246 6039ft 76kts
02-Jan-17 10:38 34.753907 -116.549623 246 6265ft 78kts
02-Jan-17 10:39 34.741824 -116.575995 246 6337ft 96kts
02-Jan-17 10:40 34.730245 -116.600664 246 6755ft 72kts
02-Jan-17 10:41 34.719747 -116.623210 254 6863ft 85kts
02-Jan-17 10:42 34.710920 -116.651897 255 6994ft 92kts
02-Jan-17 10:43 34.703128 -116.683105 255 7043ft 102kts
02-Jan-17 10:44 34.697957 -116.717789 255 7042ft 106kts
02-Jan-17 10:45 34.692751 -116.752562 255 7040ft 103kts
02-Jan-17 10:46 34.684439 -116.785089 242 7041ft 100kts
02-Jan-17 10:47 34.672669 -116.816916 242 6922ft 110kts
02-Jan-17 10:48 34.659433 -116.852308 242 6635ft 113kts
02-Jan-17 10:49 34.647902 -116.883655 242 6397ft 91kts
02-Jan-17 10:50 34.638120 -116.911439 242 6471ft 86kts
02-Jan-17 10:51 34.630523 -116.933325 242 6494ft 92kts
02-Jan-17 10:52 34.620462 -116.962245 242 6492ft 96kts
02-Jan-17 10:53 34.610060 -116.992393 242 6491ft 97kts
02-Jan-17 10:54 34.599818 -117.022468 242 6491ft 96kts
02-Jan-17 10:55 34.589860 -117.052116 242 6491ft 94kts
02-Jan-17 10:56 34.579999 -117.081341 241 6490ft 93kts
02-Jan-17 10:57 34.569671 -117.109831 239 6490ft 91kts
02-Jan-17 10:58 34.558322 -117.136756 236 6490ft 89kts
02-Jan-17 10:59 34.539775 -117.153455 202 6501ft 89kts
02-Jan-17 11:00 34.517338 -117.165053 217 6514ft 88kts
02-Jan-17 11:01 34.495940 -117.180524 216 6517ft 92kts
02-Jan-17 11:02 34.472536 -117.194475 211 6514ft 95kts
02-Jan-17 11:03 34.447896 -117.207166 211 6523ft 97kts
02-Jan-17 11:04 34.422593 -117.220003 211 6530ft 99kts
02-Jan-17 11:05 34.396887 -117.232969 211 6535ft 101kts
02-Jan-17 11:06 34.370030 -117.246747 211 6447ft 106kts
02-Jan-17 11:07 34.343018 -117.260545 211 6452ft 105kts
02-Jan-17 11:08 34.317026 -117.275270 216 6460ft 104kts
02-Jan-17 11:09 34.291661 -117.291603 216 6470ft 106kts
02-Jan-17 11:10 34.265504 -117.308653 216 6482ft 108kts
02-Jan-17 11:11 34.239037 -117.326357 216 6498ft 110kts
02-Jan-17 11:12 34.211915 -117.344894 216 6500ft 113kts
02-Jan-17 11:13 34.184311 -117.364063 216 6000ft 114kts
02-Jan-17 11:14 34.157250 -117.383449 216 5500ft 113kts
02-Jan-17 11:15 34.130541 -117.403246 216 5001ft 112kts
02-Jan-17 11:16 34.104832 -117.422919 216 4402ft 103kts
02-Jan-17 11:17 34.082484 -117.440543 216 3681ft 92kts
02-Jan-17 11:18 34.062045 -117.457372 216 2973ft 87kts
02-Jan-17 11:19 34.054532 -117.478955 256 2520ft 68kts
02-Jan-17 11:20 34.053969 -117.501939 277 2175ft 70kts
02-Jan-17 11:21 34.053684 -117.525102 270 1947ft 69kts
02-Jan-17 11:22 34.053841 -117.549516 275 1575ft 71kts
02-Jan-17 11:23 34.054865 -117.572846 268 1184ft 74kts
02-Jan-17 11:24 34.054760 -117.589296 242 946ft 10kts
02-Jan-17 11:25 34.053834 -117.590745 271 946ft 10kts
02-Jan-17 11:26 34.053830 -117.594993 269 946ft 18kts
02-Jan-17 11:27 34.053832 -117.601642 269 946ft 8kts
02-Jan-17 11:28 34.052988 -117.601971 145 946ft 7kts
02-Jan-17 11:29 34.052541 -117.601640 215 946ft 0kts
02-Jan-17 11:30 34.052541 -117.601640 215 946ft 0kts

Navigation Log

Ident Type Via Name
Flight plan parsing failed, navigation log unavailable